sensor_id;sensor_type;location;lat;lon;timestamp;P1;durP1;ratioP1;P2;durP2;ratioP2
80565;SDS011;69915;54.862;10.730;2024-03-25T00:00:37;3.05;;;0.93;;
80565;SDS011;69915;54.862;10.730;2024-03-25T00:03:03;1.08;;;0.50;;
80565;SDS011;69915;54.862;10.730;2024-03-25T00:05:29;1.70;;;0.70;;
80565;SDS011;69915;54.862;10.730;2024-03-25T00:07:56;3.25;;;1.05;;
80565;SDS011;69915;54.862;10.730;2024-03-25T00:10:23;2.13;;;0.80;;
80565;SDS011;69915;54.862;10.730;2024-03-25T00:12:49;1.92;;;0.73;;
80565;SDS011;69915;54.862;10.730;2024-03-25T00:15:19;3.10;;;1.75;;
80565;SDS011;69915;54.862;10.730;2024-03-25T00:17:46;4.53;;;1.55;;
80565;SDS011;69915;54.862;10.730;2024-03-25T00:20:12;3.15;;;1.50;;
80565;SDS011;69915;54.862;10.730;2024-03-25T00:22:40;4.13;;;1.92;;
80565;SDS011;69915;54.862;10.730;2024-03-25T00:25:06;5.70;;;1.90;;
80565;SDS011;69915;54.862;10.730;2024-03-25T00:27:33;5.05;;;2.13;;
80565;SDS011;69915;54.862;10.730;2024-03-25T00:29:59;4.15;;;1.50;;
80565;SDS011;69915;54.862;10.730;2024-03-25T00:32:24;4.55;;;1.77;;
80565;SDS011;69915;54.862;10.730;2024-03-25T00:34:50;5.15;;;1.63;;
80565;SDS011;69915;54.862;10.730;2024-03-25T00:37:15;3.35;;;1.33;;
80565;SDS011;69915;54.862;10.730;2024-03-25T00:39:41;2.90;;;1.33;;
80565;SDS011;69915;54.862;10.730;2024-03-25T00:42:07;5.43;;;2.90;;
80565;SDS011;69915;54.862;10.730;2024-03-25T00:44:33;4.53;;;2.30;;
80565;SDS011;69915;54.862;10.730;2024-03-25T00:46:58;7.07;;;2.78;;
80565;SDS011;69915;54.862;10.730;2024-03-25T00:49:24;5.55;;;2.95;;
80565;SDS011;69915;54.862;10.730;2024-03-25T00:51:50;7.28;;;2.63;;
80565;SDS011;69915;54.862;10.730;2024-03-25T00:54:17;5.40;;;2.20;;
80565;SDS011;69915;54.862;10.730;2024-03-25T00:56:42;6.45;;;3.10;;
80565;SDS011;69915;54.862;10.730;2024-03-25T00:59:09;5.95;;;2.20;;
80565;SDS011;69915;54.862;10.730;2024-03-25T01:01:34;4.22;;;2.63;;
80565;SDS011;69915;54.862;10.730;2024-03-25T01:04:03;7.32;;;2.65;;
80565;SDS011;69915;54.862;10.730;2024-03-25T01:06:29;7.50;;;2.65;;
80565;SDS011;69915;54.862;10.730;2024-03-25T01:08:55;5.55;;;2.78;;
80565;SDS011;69915;54.862;10.730;2024-03-25T01:11:21;7.03;;;3.08;;
80565;SDS011;69915;54.862;10.730;2024-03-25T01:13:47;7.10;;;2.83;;
80565;SDS011;69915;54.862;10.730;2024-03-25T01:16:13;5.18;;;1.92;;
80565;SDS011;69915;54.862;10.730;2024-03-25T01:18:39;6.10;;;3.15;;
80565;SDS011;69915;54.862;10.730;2024-03-25T01:21:04;5.60;;;2.42;;
80565;SDS011;69915;54.862;10.730;2024-03-25T01:23:30;4.78;;;2.22;;
80565;SDS011;69915;54.862;10.730;2024-03-25T01:25:56;6.47;;;2.40;;
80565;SDS011;69915;54.862;10.730;2024-03-25T01:28:21;5.30;;;2.38;;
80565;SDS011;69915;54.862;10.730;2024-03-25T01:30:47;4.60;;;1.95;;
80565;SDS011;69915;54.862;10.730;2024-03-25T01:33:13;5.93;;;2.92;;
80565;SDS011;69915;54.862;10.730;2024-03-25T01:35:40;5.63;;;2.03;;
80565;SDS011;69915;54.862;10.730;2024-03-25T01:38:06;11.85;;;2.58;;
80565;SDS011;69915;54.862;10.730;2024-03-25T01:40:32;7.47;;;3.30;;
80565;SDS011;69915;54.862;10.730;2024-03-25T01:43:02;6.70;;;3.63;;
80565;SDS011;69915;54.862;10.730;2024-03-25T01:45:32;6.55;;;2.78;;
80565;SDS011;69915;54.862;10.730;2024-03-25T01:48:01;5.93;;;2.95;;
80565;SDS011;69915;54.862;10.730;2024-03-25T01:50:30;7.07;;;2.92;;
80565;SDS011;69915;54.862;10.730;2024-03-25T01:52:59;5.50;;;2.47;;
80565;SDS011;69915;54.862;10.730;2024-03-25T01:55:25;5.50;;;2.67;;
80565;SDS011;69915;54.862;10.730;2024-03-25T01:57:53;6.85;;;3.42;;
80565;SDS011;69915;54.862;10.730;2024-03-25T02:00:19;6.85;;;3.00;;
80565;SDS011;69915;54.862;10.730;2024-03-25T02:02:45;7.05;;;2.83;;
80565;SDS011;69915;54.862;10.730;2024-03-25T02:05:13;5.50;;;2.63;;
80565;SDS011;69915;54.862;10.730;2024-03-25T02:07:40;8.55;;;3.58;;
80565;SDS011;69915;54.862;10.730;2024-03-25T02:10:07;6.72;;;2.70;;
80565;SDS011;69915;54.862;10.730;2024-03-25T02:12:40;6.63;;;2.85;;
80565;SDS011;69915;54.862;10.730;2024-03-25T02:15:10;8.63;;;3.25;;
80565;SDS011;69915;54.862;10.730;2024-03-25T02:17:36;7.72;;;3.08;;
80565;SDS011;69915;54.862;10.730;2024-03-25T02:20:02;8.18;;;3.72;;
80565;SDS011;69915;54.862;10.730;2024-03-25T02:22:35;6.95;;;2.78;;
80565;SDS011;69915;54.862;10.730;2024-03-25T02:25:08;8.65;;;3.00;;
80565;SDS011;69915;54.862;10.730;2024-03-25T02:27:35;4.95;;;2.50;;
80565;SDS011;69915;54.862;10.730;2024-03-25T02:30:08;6.35;;;2.83;;
80565;SDS011;69915;54.862;10.730;2024-03-25T02:32:36;6.35;;;1.92;;
80565;SDS011;69915;54.862;10.730;2024-03-25T02:35:02;7.05;;;2.38;;
80565;SDS011;69915;54.862;10.730;2024-03-25T02:37:30;4.63;;;1.58;;
80565;SDS011;69915;54.862;10.730;2024-03-25T02:39:57;3.28;;;0.90;;
80565;SDS011;69915;54.862;10.730;2024-03-25T02:42:30;6.53;;;1.83;;
80565;SDS011;69915;54.862;10.730;2024-03-25T02:44:56;6.82;;;1.85;;
80565;SDS011;69915;54.862;10.730;2024-03-25T02:47:22;4.57;;;1.95;;
80565;SDS011;69915;54.862;10.730;2024-03-25T02:49:49;7.28;;;2.42;;
80565;SDS011;69915;54.862;10.730;2024-03-25T02:52:14;4.18;;;1.42;;
80565;SDS011;69915;54.862;10.730;2024-03-25T02:54:41;3.47;;;1.75;;
80565;SDS011;69915;54.862;10.730;2024-03-25T02:57:06;6.32;;;2.13;;
80565;SDS011;69915;54.862;10.730;2024-03-25T02:59:32;4.97;;;2.60;;
80565;SDS011;69915;54.862;10.730;2024-03-25T03:01:57;3.88;;;1.77;;
80565;SDS011;69915;54.862;10.730;2024-03-25T03:04:23;4.65;;;1.98;;
80565;SDS011;69915;54.862;10.730;2024-03-25T03:06:49;5.38;;;1.73;;
80565;SDS011;69915;54.862;10.730;2024-03-25T03:09:27;6.47;;;2.00;;
80565;SDS011;69915;54.862;10.730;2024-03-25T03:11:52;6.82;;;2.25;;
80565;SDS011;69915;54.862;10.730;2024-03-25T03:14:18;3.80;;;1.85;;
80565;SDS011;69915;54.862;10.730;2024-03-25T03:16:43;4.18;;;2.00;;
80565;SDS011;69915;54.862;10.730;2024-03-25T03:19:09;4.35;;;2.33;;
80565;SDS011;69915;54.862;10.730;2024-03-25T03:21:35;6.15;;;2.40;;
80565;SDS011;69915;54.862;10.730;2024-03-25T03:24:01;6.40;;;2.08;;
80565;SDS011;69915;54.862;10.730;2024-03-25T03:26:28;9.05;;;1.95;;
80565;SDS011;69915;54.862;10.730;2024-03-25T03:28:53;4.55;;;2.17;;
80565;SDS011;69915;54.862;10.730;2024-03-25T03:31:19;7.25;;;2.85;;
80565;SDS011;69915;54.862;10.730;2024-03-25T03:33:47;3.97;;;1.20;;
80565;SDS011;69915;54.862;10.730;2024-03-25T03:36:14;5.10;;;2.67;;
80565;SDS011;69915;54.862;10.730;2024-03-25T03:38:51;6.55;;;2.75;;
80565;SDS011;69915;54.862;10.730;2024-03-25T03:41:17;3.08;;;1.50;;
80565;SDS011;69915;54.862;10.730;2024-03-25T03:43:42;6.10;;;2.80;;
80565;SDS011;69915;54.862;10.730;2024-03-25T03:46:08;8.43;;;2.45;;
80565;SDS011;69915;54.862;10.730;2024-03-25T03:48:33;6.82;;;2.15;;
80565;SDS011;69915;54.862;10.730;2024-03-25T03:51:00;6.38;;;2.13;;
80565;SDS011;69915;54.862;10.730;2024-03-25T03:53:26;4.35;;;1.83;;
80565;SDS011;69915;54.862;10.730;2024-03-25T03:58:21;6.43;;;2.78;;
80565;SDS011;69915;54.862;10.730;2024-03-25T04:00:48;8.90;;;3.70;;
80565;SDS011;69915;54.862;10.730;2024-03-25T04:03:13;7.07;;;2.33;;
80565;SDS011;69915;54.862;10.730;2024-03-25T04:05:39;11.65;;;3.92;;
80565;SDS011;69915;54.862;10.730;2024-03-25T04:08:04;7.60;;;3.45;;
80565;SDS011;69915;54.862;10.730;2024-03-25T04:10:30;5.53;;;2.67;;
80565;SDS011;69915;54.862;10.730;2024-03-25T04:12:56;7.60;;;3.72;;
80565;SDS011;69915;54.862;10.730;2024-03-25T04:15:22;6.63;;;2.60;;
80565;SDS011;69915;54.862;10.730;2024-03-25T04:17:48;8.90;;;3.20;;
80565;SDS011;69915;54.862;10.730;2024-03-25T04:20:16;6.72;;;2.63;;
80565;SDS011;69915;54.862;10.730;2024-03-25T04:22:42;7.85;;;2.75;;
80565;SDS011;69915;54.862;10.730;2024-03-25T04:25:09;7.90;;;2.85;;
80565;SDS011;69915;54.862;10.730;2024-03-25T04:27:42;8.15;;;2.67;;
80565;SDS011;69915;54.862;10.730;2024-03-25T04:30:08;5.95;;;2.67;;
80565;SDS011;69915;54.862;10.730;2024-03-25T04:32:36;5.50;;;2.28;;
80565;SDS011;69915;54.862;10.730;2024-03-25T04:35:03;7.20;;;2.90;;
80565;SDS011;69915;54.862;10.730;2024-03-25T04:37:29;8.02;;;2.47;;
80565;SDS011;69915;54.862;10.730;2024-03-25T04:39:55;9.38;;;3.30;;
80565;SDS011;69915;54.862;10.730;2024-03-25T04:42:22;6.38;;;2.90;;
80565;SDS011;69915;54.862;10.730;2024-03-25T04:44:49;9.75;;;3.38;;
80565;SDS011;69915;54.862;10.730;2024-03-25T04:47:15;7.28;;;1.95;;
80565;SDS011;69915;54.862;10.730;2024-03-25T04:49:41;4.68;;;2.47;;
80565;SDS011;69915;54.862;10.730;2024-03-25T04:52:07;6.65;;;2.75;;
80565;SDS011;69915;54.862;10.730;2024-03-25T04:54:33;5.47;;;3.05;;
80565;SDS011;69915;54.862;10.730;2024-03-25T04:56:58;9.18;;;2.67;;
80565;SDS011;69915;54.862;10.730;2024-03-25T04:59:24;10.13;;;2.95;;
80565;SDS011;69915;54.862;10.730;2024-03-25T05:01:50;6.30;;;2.83;;
80565;SDS011;69915;54.862;10.730;2024-03-25T05:04:17;8.45;;;2.38;;
80565;SDS011;69915;54.862;10.730;2024-03-25T05:06:43;4.72;;;2.60;;
80565;SDS011;69915;54.862;10.730;2024-03-25T05:09:09;5.43;;;3.40;;
80565;SDS011;69915;54.862;10.730;2024-03-25T05:11:35;4.50;;;2.45;;
80565;SDS011;69915;54.862;10.730;2024-03-25T05:14:01;4.45;;;2.45;;
80565;SDS011;69915;54.862;10.730;2024-03-25T05:16:26;8.70;;;2.83;;
80565;SDS011;69915;54.862;10.730;2024-03-25T05:18:52;7.22;;;3.08;;
80565;SDS011;69915;54.862;10.730;2024-03-25T05:21:18;5.53;;;2.65;;
80565;SDS011;69915;54.862;10.730;2024-03-25T05:23:44;8.05;;;2.58;;
80565;SDS011;69915;54.862;10.730;2024-03-25T05:26:09;7.07;;;3.05;;
80565;SDS011;69915;54.862;10.730;2024-03-25T05:28:35;5.65;;;2.42;;
80565;SDS011;69915;54.862;10.730;2024-03-25T05:31:07;2.90;;;1.67;;
80565;SDS011;69915;54.862;10.730;2024-03-25T05:33:34;7.60;;;2.05;;
80565;SDS011;69915;54.862;10.730;2024-03-25T05:36:00;4.72;;;2.30;;
80565;SDS011;69915;54.862;10.730;2024-03-25T05:38:26;3.78;;;1.20;;
80565;SDS011;69915;54.862;10.730;2024-03-25T05:40:52;4.70;;;1.90;;
80565;SDS011;69915;54.862;10.730;2024-03-25T05:43:18;2.50;;;1.25;;
80565;SDS011;69915;54.862;10.730;2024-03-25T05:45:54;4.68;;;2.28;;
80565;SDS011;69915;54.862;10.730;2024-03-25T05:48:21;5.07;;;1.77;;
80565;SDS011;69915;54.862;10.730;2024-03-25T05:51:06;4.25;;;1.50;;
80565;SDS011;69915;54.862;10.730;2024-03-25T05:53:34;6.03;;;1.90;;
80565;SDS011;69915;54.862;10.730;2024-03-25T05:56:03;3.53;;;1.40;;
80565;SDS011;69915;54.862;10.730;2024-03-25T05:58:29;7.45;;;1.00;;
80565;SDS011;69915;54.862;10.730;2024-03-25T06:00:55;5.50;;;2.05;;
80565;SDS011;69915;54.862;10.730;2024-03-25T06:03:21;3.60;;;1.60;;
80565;SDS011;69915;54.862;10.730;2024-03-25T06:05:47;4.45;;;1.75;;
80565;SDS011;69915;54.862;10.730;2024-03-25T06:08:13;4.32;;;1.25;;
80565;SDS011;69915;54.862;10.730;2024-03-25T06:10:51;4.63;;;1.92;;
80565;SDS011;69915;54.862;10.730;2024-03-25T06:13:17;2.45;;;1.00;;
80565;SDS011;69915;54.862;10.730;2024-03-25T06:15:43;3.53;;;1.23;;
80565;SDS011;69915;54.862;10.730;2024-03-25T06:18:09;5.30;;;1.45;;
80565;SDS011;69915;54.862;10.730;2024-03-25T06:20:34;4.65;;;1.40;;
80565;SDS011;69915;54.862;10.730;2024-03-25T06:23:00;4.40;;;1.40;;
80565;SDS011;69915;54.862;10.730;2024-03-25T06:25:26;5.90;;;1.73;;
80565;SDS011;69915;54.862;10.730;2024-03-25T06:27:53;3.08;;;0.90;;
80565;SDS011;69915;54.862;10.730;2024-03-25T06:30:19;5.35;;;1.25;;
80565;SDS011;69915;54.862;10.730;2024-03-25T06:33:03;2.13;;;1.02;;
80565;SDS011;69915;54.862;10.730;2024-03-25T06:35:47;2.55;;;1.20;;
80565;SDS011;69915;54.862;10.730;2024-03-25T06:38:13;2.08;;;1.05;;
80565;SDS011;69915;54.862;10.730;2024-03-25T06:40:38;4.30;;;1.35;;
80565;SDS011;69915;54.862;10.730;2024-03-25T06:43:04;3.58;;;0.93;;
80565;SDS011;69915;54.862;10.730;2024-03-25T06:45:30;5.32;;;1.17;;
80565;SDS011;69915;54.862;10.730;2024-03-25T06:47:57;2.03;;;0.95;;
80565;SDS011;69915;54.862;10.730;2024-03-25T06:50:22;3.00;;;0.80;;
80565;SDS011;69915;54.862;10.730;2024-03-25T06:52:48;1.67;;;0.55;;
80565;SDS011;69915;54.862;10.730;2024-03-25T06:55:14;1.67;;;0.80;;
80565;SDS011;69915;54.862;10.730;2024-03-25T06:57:40;4.32;;;0.90;;
80565;SDS011;69915;54.862;10.730;2024-03-25T07:00:06;2.63;;;0.93;;
80565;SDS011;69915;54.862;10.730;2024-03-25T07:02:36;5.07;;;0.88;;
80565;SDS011;69915;54.862;10.730;2024-03-25T07:05:01;2.83;;;0.98;;
80565;SDS011;69915;54.862;10.730;2024-03-25T07:07:27;4.78;;;0.90;;
80565;SDS011;69915;54.862;10.730;2024-03-25T07:09:52;2.35;;;0.82;;
80565;SDS011;69915;54.862;10.730;2024-03-25T07:12:19;2.33;;;1.17;;
80565;SDS011;69915;54.862;10.730;2024-03-25T07:14:45;2.22;;;0.90;;
80565;SDS011;69915;54.862;10.730;2024-03-25T07:17:10;2.40;;;0.88;;
80565;SDS011;69915;54.862;10.730;2024-03-25T07:19:36;2.67;;;0.82;;
80565;SDS011;69915;54.862;10.730;2024-03-25T07:22:02;3.10;;;1.10;;
80565;SDS011;69915;54.862;10.730;2024-03-25T07:24:27;3.15;;;0.77;;
80565;SDS011;69915;54.862;10.730;2024-03-25T07:26:53;1.73;;;0.75;;
80565;SDS011;69915;54.862;10.730;2024-03-25T07:29:18;2.50;;;1.00;;
80565;SDS011;69915;54.862;10.730;2024-03-25T07:31:44;2.92;;;0.88;;
80565;SDS011;69915;54.862;10.730;2024-03-25T07:34:10;1.85;;;0.68;;
80565;SDS011;69915;54.862;10.730;2024-03-25T07:36:37;1.90;;;0.80;;
80565;SDS011;69915;54.862;10.730;2024-03-25T07:39:04;2.38;;;0.80;;
80565;SDS011;69915;54.862;10.730;2024-03-25T07:41:36;2.42;;;0.90;;
80565;SDS011;69915;54.862;10.730;2024-03-25T07:44:02;4.10;;;0.80;;
80565;SDS011;69915;54.862;10.730;2024-03-25T07:46:29;3.30;;;1.00;;
80565;SDS011;69915;54.862;10.730;2024-03-25T07:48:55;2.08;;;0.80;;
80565;SDS011;69915;54.862;10.730;2024-03-25T07:51:21;2.08;;;0.70;;
80565;SDS011;69915;54.862;10.730;2024-03-25T07:53:47;2.05;;;0.70;;
80565;SDS011;69915;54.862;10.730;2024-03-25T07:56:12;3.00;;;0.88;;
80565;SDS011;69915;54.862;10.730;2024-03-25T07:58:40;2.38;;;0.73;;
80565;SDS011;69915;54.862;10.730;2024-03-25T08:01:05;3.00;;;0.75;;
80565;SDS011;69915;54.862;10.730;2024-03-25T08:03:31;2.22;;;0.85;;
80565;SDS011;69915;54.862;10.730;2024-03-25T08:05:57;3.58;;;1.20;;
80565;SDS011;69915;54.862;10.730;2024-03-25T08:08:22;2.25;;;0.60;;
80565;SDS011;69915;54.862;10.730;2024-03-25T08:10:48;3.08;;;1.20;;
80565;SDS011;69915;54.862;10.730;2024-03-25T08:13:13;1.75;;;0.80;;
80565;SDS011;69915;54.862;10.730;2024-03-25T08:15:39;4.68;;;1.45;;
80565;SDS011;69915;54.862;10.730;2024-03-25T08:18:04;4.45;;;0.90;;
80565;SDS011;69915;54.862;10.730;2024-03-25T08:20:30;4.47;;;0.93;;
80565;SDS011;69915;54.862;10.730;2024-03-25T08:22:56;3.13;;;1.02;;
80565;SDS011;69915;54.862;10.730;2024-03-25T08:25:22;3.70;;;1.30;;
80565;SDS011;69915;54.862;10.730;2024-03-25T08:27:47;3.90;;;1.00;;
80565;SDS011;69915;54.862;10.730;2024-03-25T08:30:13;3.35;;;1.23;;
80565;SDS011;69915;54.862;10.730;2024-03-25T08:32:44;2.40;;;0.73;;
80565;SDS011;69915;54.862;10.730;2024-03-25T08:35:10;2.20;;;0.70;;
80565;SDS011;69915;54.862;10.730;2024-03-25T08:37:36;3.33;;;0.98;;
80565;SDS011;69915;54.862;10.730;2024-03-25T08:40:02;2.15;;;0.70;;
80565;SDS011;69915;54.862;10.730;2024-03-25T08:42:29;2.45;;;0.85;;
80565;SDS011;69915;54.862;10.730;2024-03-25T08:44:55;4.78;;;0.80;;
80565;SDS011;69915;54.862;10.730;2024-03-25T08:47:20;2.20;;;0.95;;
80565;SDS011;69915;54.862;10.730;2024-03-25T08:49:46;3.72;;;1.10;;
80565;SDS011;69915;54.862;10.730;2024-03-25T08:52:11;2.65;;;0.57;;
80565;SDS011;69915;54.862;10.730;2024-03-25T08:54:37;2.80;;;1.02;;
80565;SDS011;69915;54.862;10.730;2024-03-25T08:57:03;3.15;;;0.80;;
80565;SDS011;69915;54.862;10.730;2024-03-25T08:59:29;1.98;;;0.70;;
80565;SDS011;69915;54.862;10.730;2024-03-25T09:01:55;2.60;;;0.95;;
80565;SDS011;69915;54.862;10.730;2024-03-25T09:04:20;4.68;;;0.98;;
80565;SDS011;69915;54.862;10.730;2024-03-25T09:06:46;2.28;;;0.68;;
80565;SDS011;69915;54.862;10.730;2024-03-25T09:09:13;5.85;;;0.80;;
80565;SDS011;69915;54.862;10.730;2024-03-25T09:11:56;1.65;;;0.70;;
80565;SDS011;69915;54.862;10.730;2024-03-25T09:14:22;4.43;;;1.00;;
80565;SDS011;69915;54.862;10.730;2024-03-25T09:16:47;2.15;;;0.60;;
80565;SDS011;69915;54.862;10.730;2024-03-25T09:19:13;1.63;;;0.75;;
80565;SDS011;69915;54.862;10.730;2024-03-25T09:21:39;2.67;;;0.93;;
80565;SDS011;69915;54.862;10.730;2024-03-25T09:24:04;1.80;;;0.82;;
80565;SDS011;69915;54.862;10.730;2024-03-25T09:26:30;4.70;;;1.02;;
80565;SDS011;69915;54.862;10.730;2024-03-25T09:28:56;1.88;;;0.70;;
80565;SDS011;69915;54.862;10.730;2024-03-25T09:31:21;3.75;;;0.90;;
80565;SDS011;69915;54.862;10.730;2024-03-25T09:33:47;2.00;;;0.75;;
80565;SDS011;69915;54.862;10.730;2024-03-25T09:36:13;2.88;;;0.80;;
80565;SDS011;69915;54.862;10.730;2024-03-25T09:38:38;2.65;;;1.13;;
80565;SDS011;69915;54.862;10.730;2024-03-25T09:41:04;2.15;;;0.73;;
80565;SDS011;69915;54.862;10.730;2024-03-25T09:43:33;4.55;;;0.82;;
80565;SDS011;69915;54.862;10.730;2024-03-25T09:46:03;1.73;;;0.65;;
80565;SDS011;69915;54.862;10.730;2024-03-25T09:48:29;2.97;;;0.80;;
80565;SDS011;69915;54.862;10.730;2024-03-25T09:50:55;2.60;;;0.82;;
80565;SDS011;69915;54.862;10.730;2024-03-25T09:53:21;2.05;;;0.80;;
80565;SDS011;69915;54.862;10.730;2024-03-25T09:55:47;3.05;;;0.77;;
80565;SDS011;69915;54.862;10.730;2024-03-25T09:58:16;5.93;;;1.23;;
80565;SDS011;69915;54.862;10.730;2024-03-25T10:00:43;2.10;;;0.95;;
80565;SDS011;69915;54.862;10.730;2024-03-25T10:03:10;2.65;;;1.05;;
80565;SDS011;69915;54.862;10.730;2024-03-25T10:05:35;4.35;;;1.33;;
80565;SDS011;69915;54.862;10.730;2024-03-25T10:08:01;2.45;;;1.00;;
80565;SDS011;69915;54.862;10.730;2024-03-25T10:10:27;6.38;;;1.40;;
80565;SDS011;69915;54.862;10.730;2024-03-25T10:12:54;4.00;;;1.00;;
80565;SDS011;69915;54.862;10.730;2024-03-25T10:15:20;4.75;;;1.30;;
80565;SDS011;69915;54.862;10.730;2024-03-25T10:17:48;2.38;;;1.00;;
80565;SDS011;69915;54.862;10.730;2024-03-25T10:20:14;3.55;;;1.02;;
80565;SDS011;69915;54.862;10.730;2024-03-25T10:22:40;3.35;;;1.17;;
80565;SDS011;69915;54.862;10.730;2024-03-25T10:25:19;3.85;;;1.00;;
80565;SDS011;69915;54.862;10.730;2024-03-25T10:27:52;2.55;;;1.05;;
80565;SDS011;69915;54.862;10.730;2024-03-25T10:30:22;4.80;;;1.23;;
80565;SDS011;69915;54.862;10.730;2024-03-25T10:33:04;4.40;;;0.95;;
80565;SDS011;69915;54.862;10.730;2024-03-25T10:35:31;4.25;;;1.02;;
80565;SDS011;69915;54.862;10.730;2024-03-25T10:37:59;3.15;;;0.80;;
80565;SDS011;69915;54.862;10.730;2024-03-25T10:40:29;2.13;;;0.60;;
80565;SDS011;69915;54.862;10.730;2024-03-25T10:43:06;1.80;;;0.63;;
80565;SDS011;69915;54.862;10.730;2024-03-25T10:51:01;2.28;;;0.63;;
80565;SDS011;69915;54.862;10.730;2024-03-25T10:53:28;4.93;;;0.80;;
80565;SDS011;69915;54.862;10.730;2024-03-25T10:55:55;3.92;;;0.90;;
80565;SDS011;69915;54.862;10.730;2024-03-25T10:58:22;2.17;;;0.57;;
80565;SDS011;69915;54.862;10.730;2024-03-25T11:00:49;5.20;;;0.77;;
80565;SDS011;69915;54.862;10.730;2024-03-25T11:03:16;6.47;;;0.93;;
80565;SDS011;69915;54.862;10.730;2024-03-25T11:05:43;5.18;;;1.15;;
80565;SDS011;69915;54.862;10.730;2024-03-25T11:08:09;3.35;;;0.95;;
80565;SDS011;69915;54.862;10.730;2024-03-25T11:10:47;5.10;;;1.00;;
80565;SDS011;69915;54.862;10.730;2024-03-25T11:13:13;6.78;;;1.08;;
80565;SDS011;69915;54.862;10.730;2024-03-25T11:15:42;4.55;;;1.55;;
80565;SDS011;69915;54.862;10.730;2024-03-25T11:18:12;2.67;;;0.93;;
80565;SDS011;69915;54.862;10.730;2024-03-25T11:20:38;3.28;;;1.02;;
80565;SDS011;69915;54.862;10.730;2024-03-25T11:23:08;2.30;;;1.05;;
80565;SDS011;69915;54.862;10.730;2024-03-25T11:25:36;1.55;;;0.82;;
80565;SDS011;69915;54.862;10.730;2024-03-25T11:28:02;2.65;;;0.77;;
80565;SDS011;69915;54.862;10.730;2024-03-25T11:30:29;4.18;;;0.98;;
80565;SDS011;69915;54.862;10.730;2024-03-25T11:32:56;2.85;;;1.23;;
80565;SDS011;69915;54.862;10.730;2024-03-25T11:35:26;2.70;;;0.60;;
80565;SDS011;69915;54.862;10.730;2024-03-25T11:37:52;2.95;;;0.80;;
80565;SDS011;69915;54.862;10.730;2024-03-25T11:40:18;4.10;;;1.00;;
80565;SDS011;69915;54.862;10.730;2024-03-25T11:42:45;1.77;;;0.80;;
80565;SDS011;69915;54.862;10.730;2024-03-25T11:45:17;3.40;;;0.70;;
80565;SDS011;69915;54.862;10.730;2024-03-25T11:47:45;1.40;;;0.60;;
80565;SDS011;69915;54.862;10.730;2024-03-25T11:50:13;2.28;;;0.90;;
80565;SDS011;69915;54.862;10.730;2024-03-25T11:52:40;2.10;;;0.70;;
80565;SDS011;69915;54.862;10.730;2024-03-25T11:55:07;2.55;;;0.70;;
80565;SDS011;69915;54.862;10.730;2024-03-25T12:00:03;1.17;;;0.60;;
80565;SDS011;69915;54.862;10.730;2024-03-25T12:02:31;4.40;;;0.70;;
80565;SDS011;69915;54.862;10.730;2024-03-25T12:04:57;3.35;;;0.55;;
80565;SDS011;69915;54.862;10.730;2024-03-25T12:07:23;3.00;;;1.10;;
80565;SDS011;69915;54.862;10.730;2024-03-25T12:09:48;4.22;;;1.00;;
80565;SDS011;69915;54.862;10.730;2024-03-25T12:12:33;3.45;;;1.15;;
80565;SDS011;69915;54.862;10.730;2024-03-25T12:15:00;5.18;;;0.90;;
80565;SDS011;69915;54.862;10.730;2024-03-25T12:17:29;5.88;;;0.98;;
80565;SDS011;69915;54.862;10.730;2024-03-25T12:20:01;4.60;;;0.90;;
80565;SDS011;69915;54.862;10.730;2024-03-25T12:22:29;3.95;;;1.20;;
80565;SDS011;69915;54.862;10.730;2024-03-25T12:25:05;3.90;;;0.98;;
80565;SDS011;69915;54.862;10.730;2024-03-25T12:27:32;4.47;;;1.17;;
80565;SDS011;69915;54.862;10.730;2024-03-25T12:32:57;5.68;;;0.90;;
80565;SDS011;69915;54.862;10.730;2024-03-25T12:35:16;2.90;;;1.10;;
80565;SDS011;69915;54.862;10.730;2024-03-25T12:37:43;6.00;;;1.10;;
80565;SDS011;69915;54.862;10.730;2024-03-25T12:40:10;3.42;;;1.00;;
80565;SDS011;69915;54.862;10.730;2024-03-25T12:42:38;4.75;;;1.25;;
80565;SDS011;69915;54.862;10.730;2024-03-25T12:45:06;7.90;;;1.33;;
80565;SDS011;69915;54.862;10.730;2024-03-25T12:47:33;7.38;;;0.98;;
80565;SDS011;69915;54.862;10.730;2024-03-25T12:49:59;6.50;;;1.20;;
80565;SDS011;69915;54.862;10.730;2024-03-25T12:52:25;6.72;;;1.30;;
80565;SDS011;69915;54.862;10.730;2024-03-25T12:54:50;5.97;;;1.00;;
80565;SDS011;69915;54.862;10.730;2024-03-25T12:57:16;4.72;;;1.30;;
80565;SDS011;69915;54.862;10.730;2024-03-25T12:59:43;3.80;;;0.90;;
80565;SDS011;69915;54.862;10.730;2024-03-25T13:02:10;3.53;;;1.60;;
80565;SDS011;69915;54.862;10.730;2024-03-25T13:04:38;7.13;;;1.13;;
80565;SDS011;69915;54.862;10.730;2024-03-25T13:07:06;2.60;;;0.70;;
80565;SDS011;69915;54.862;10.730;2024-03-25T13:09:32;2.45;;;0.60;;
80565;SDS011;69915;54.862;10.730;2024-03-25T13:11:58;9.48;;;1.13;;
80565;SDS011;69915;54.862;10.730;2024-03-25T13:14:24;1.88;;;0.52;;
80565;SDS011;69915;54.862;10.730;2024-03-25T13:16:51;7.50;;;1.08;;
80565;SDS011;69915;54.862;10.730;2024-03-25T13:19:16;3.60;;;0.75;;
80565;SDS011;69915;54.862;10.730;2024-03-25T13:21:42;3.47;;;0.95;;
80565;SDS011;69915;54.862;10.730;2024-03-25T13:24:08;2.95;;;0.73;;
80565;SDS011;69915;54.862;10.730;2024-03-25T13:26:34;3.90;;;0.47;;
80565;SDS011;69915;54.862;10.730;2024-03-25T13:28:59;2.20;;;0.60;;
80565;SDS011;69915;54.862;10.730;2024-03-25T13:31:25;4.75;;;1.75;;
80565;SDS011;69915;54.862;10.730;2024-03-25T13:33:51;3.55;;;0.77;;
80565;SDS011;69915;54.862;10.730;2024-03-25T13:36:18;7.03;;;0.82;;
80565;SDS011;69915;54.862;10.730;2024-03-25T13:38:44;5.47;;;1.23;;
80565;SDS011;69915;54.862;10.730;2024-03-25T13:41:10;2.20;;;0.50;;
80565;SDS011;69915;54.862;10.730;2024-03-25T13:43:42;4.63;;;0.90;;
80565;SDS011;69915;54.862;10.730;2024-03-25T13:46:08;5.40;;;0.70;;
80565;SDS011;69915;54.862;10.730;2024-03-25T13:48:34;3.45;;;1.30;;
80565;SDS011;69915;54.862;10.730;2024-03-25T13:50:59;2.38;;;0.50;;
80565;SDS011;69915;54.862;10.730;2024-03-25T13:53:25;3.63;;;1.20;;
80565;SDS011;69915;54.862;10.730;2024-03-25T13:55:51;3.80;;;1.10;;
80565;SDS011;69915;54.862;10.730;2024-03-25T13:58:17;5.95;;;1.63;;
80565;SDS011;69915;54.862;10.730;2024-03-25T14:00:43;2.35;;;0.70;;
80565;SDS011;69915;54.862;10.730;2024-03-25T14:03:08;2.55;;;0.82;;
80565;SDS011;69915;54.862;10.730;2024-03-25T14:05:34;3.45;;;0.65;;
80565;SDS011;69915;54.862;10.730;2024-03-25T14:07:59;3.80;;;0.60;;
80565;SDS011;69915;54.862;10.730;2024-03-25T14:10:25;2.67;;;0.68;;
80565;SDS011;69915;54.862;10.730;2024-03-25T14:12:51;5.85;;;1.00;;
80565;SDS011;69915;54.862;10.730;2024-03-25T14:15:16;1.75;;;0.52;;
80565;SDS011;69915;54.862;10.730;2024-03-25T14:17:42;6.05;;;1.40;;
80565;SDS011;69915;54.862;10.730;2024-03-25T14:20:08;6.13;;;0.90;;
80565;SDS011;69915;54.862;10.730;2024-03-25T14:22:34;6.97;;;0.70;;
80565;SDS011;69915;54.862;10.730;2024-03-25T14:25:00;6.55;;;1.17;;
80565;SDS011;69915;54.862;10.730;2024-03-25T14:27:26;5.43;;;1.27;;
80565;SDS011;69915;54.862;10.730;2024-03-25T14:29:53;7.18;;;1.55;;
80565;SDS011;69915;54.862;10.730;2024-03-25T14:32:19;3.42;;;0.80;;
80565;SDS011;69915;54.862;10.730;2024-03-25T14:34:47;5.30;;;0.75;;
80565;SDS011;69915;54.862;10.730;2024-03-25T14:37:13;6.68;;;1.30;;
80565;SDS011;69915;54.862;10.730;2024-03-25T14:39:39;2.33;;;0.60;;
80565;SDS011;69915;54.862;10.730;2024-03-25T14:42:07;3.08;;;0.50;;
80565;SDS011;69915;54.862;10.730;2024-03-25T14:44:34;4.70;;;1.17;;